YTEF

Details ICAO YTEF (TEF)
Name Telfer
Region Australia
Timezone Australia/Perth (UTC+8.0)
Plans Departing 1
Arriving 2
Stats Elevation 970 ft / 296 m (AMSL)
Location -21.715195° 122.230201°
Runways 1
Magnetic Variation 1.788° E
Sunrise 2018-05-22 22:19:37 UTC / 2018-05-23 06:19:37 Local
Sunset 2018-05-23 09:18:51 UTC / 2018-05-23 17:18:51 Local
Advertisement - Login to hide

Runways

ID Width Length Bearing (true) Bearing (mag) Surface Threshold Offset Overrun Length
12 98 ft / 30 m 6,559 ft / 1,999 m 121.60° 119.81° Asphalt 0 ft / 0 m 0 ft / 0 m
30 98 ft / 30 m 6,559 ft / 1,999 m 301.60° 299.81° Asphalt 0 ft / 0 m 0 ft / 0 m

Map

Weather


0- 5 10 15 20 25 30 35+ Temperature / ° C

Clouds and Precipitation
Forecast for 2018-05-22 18:00 UTC. Updated 4 hours ago

Ground ~20,000 ft ~40,000 ft Winds

METAR

YTEF 222000Z AUTO 12009KT 9999 // NCD 12/01 Q1019

TAF

Not found

Frequencies

Unicom 126.70 MHz UNICOM
Warning: Do not use this data for real-world aviation or navigation. No guarantee of current accuracy is given.